createdAt,value
2022-11-02T00:01:52.247Z,2.90
2022-11-02T00:04:21.387Z,2.90
2022-11-02T00:06:49.193Z,2.17
2022-11-02T00:09:16.969Z,2.55
2022-11-02T00:11:44.753Z,2.63
2022-11-02T00:14:12.537Z,3.05
2022-11-02T00:16:41.731Z,2.42
2022-11-02T00:19:10.400Z,2.78
2022-11-02T00:21:39.940Z,2.65
2022-11-02T00:24:09.930Z,2.80
2022-11-02T00:26:39.386Z,2.70
2022-11-02T00:29:08.205Z,2.30
2022-11-02T00:31:35.968Z,2.38
2022-11-02T00:34:03.717Z,2.55
2022-11-02T00:36:31.795Z,2.22
2022-11-02T00:39:00.885Z,2.50
2022-11-02T00:41:28.836Z,2.58
2022-11-02T00:43:56.605Z,2.63
2022-11-02T00:46:24.401Z,2.70
2022-11-02T00:48:52.197Z,2.60
2022-11-02T00:51:19.962Z,2.53
2022-11-02T00:53:47.719Z,2.33
2022-11-02T00:56:16.822Z,3.08
2022-11-02T00:58:44.609Z,2.58
2022-11-02T01:01:12.672Z,2.67
2022-11-02T01:03:40.672Z,2.78
2022-11-02T01:06:10.605Z,2.20
2022-11-02T01:08:38.438Z,2.58
2022-11-02T01:11:14.593Z,2.20
2022-11-02T01:13:44.467Z,2.38
2022-11-02T01:16:14.511Z,2.60
2022-11-02T01:18:43.413Z,2.60
2022-11-02T01:21:11.732Z,2.45
2022-11-02T01:23:39.917Z,2.38
2022-11-02T01:26:10.091Z,2.38
2022-11-02T01:28:39.244Z,2.50
2022-11-02T01:31:10.202Z,2.28
2022-11-02T01:36:08.319Z,2.10
2022-11-02T01:38:36.120Z,2.37
2022-11-02T01:41:04.094Z,2.60
2022-11-02T01:43:34.522Z,2.03
2022-11-02T01:46:14.808Z,2.67
2022-11-02T01:48:47.710Z,2.22
2022-11-02T01:51:23.646Z,2.03
2022-11-02T01:53:54.228Z,2.30
2022-11-02T01:56:26.117Z,2.70
2022-11-02T01:59:01.062Z,2.40
2022-11-02T02:01:31.206Z,2.28
2022-11-02T02:04:00.338Z,2.60
2022-11-02T02:06:28.137Z,2.30
2022-11-02T02:08:59.881Z,2.63
2022-11-02T02:11:30.965Z,2.55
2022-11-02T02:14:03.606Z,2.15
2022-11-02T02:17:07.373Z,2.00
2022-11-02T02:19:47.705Z,2.10
2022-11-02T02:22:55.183Z,2.38
2022-11-02T02:26:01.838Z,2.10
2022-11-02T02:28:42.257Z,2.15
2022-11-02T02:31:18.826Z,1.92
2022-11-02T02:33:56.362Z,2.00
2022-11-02T02:36:32.476Z,2.17
2022-11-02T02:39:07.359Z,2.03
2022-11-02T02:41:40.929Z,2.10
2022-11-02T02:44:15.661Z,2.15
2022-11-02T02:46:53.561Z,2.22
2022-11-02T02:49:32.720Z,2.22
2022-11-02T02:52:02.560Z,2.35
2022-11-02T02:54:36.170Z,1.88
2022-11-02T02:57:10.939Z,2.58
2022-11-02T02:59:43.191Z,2.05
2022-11-02T03:02:18.249Z,2.50
2022-11-02T03:04:46.104Z,2.25
2022-11-02T03:07:19.725Z,2.33
2022-11-02T03:09:57.651Z,2.08
2022-11-02T03:12:46.403Z,2.40
2022-11-02T03:15:23.788Z,1.83
2022-11-02T03:18:05.649Z,2.15
2022-11-02T03:20:48.431Z,1.85
2022-11-02T03:23:23.952Z,2.28
2022-11-02T03:26:00.831Z,2.03
2022-11-02T03:28:43.722Z,2.20
2022-11-02T03:31:20.056Z,2.28
2022-11-02T03:33:58.641Z,2.05
2022-11-02T03:36:35.582Z,1.95
2022-11-02T03:39:10.036Z,1.88
2022-11-02T03:41:41.790Z,1.80
2022-11-02T03:44:16.649Z,2.05
2022-11-02T03:46:48.031Z,1.92
2022-11-02T03:49:21.243Z,2.38
2022-11-02T03:51:51.634Z,2.13
2022-11-02T03:54:27.035Z,2.13
2022-11-02T03:57:00.632Z,1.67
2022-11-02T03:59:32.435Z,2.05
2022-11-02T04:02:03.370Z,1.92
2022-11-02T04:04:31.235Z,2.15
2022-11-02T04:06:59.134Z,1.98
2022-11-02T04:09:26.944Z,1.92
2022-11-02T04:12:12.103Z,1.85
2022-11-02T04:14:40.131Z,1.85
2022-11-02T04:19:58.770Z,2.50
2022-11-02T04:22:43.792Z,1.60
2022-11-02T04:25:18.291Z,1.88
2022-11-02T04:27:48.742Z,1.80
2022-11-02T04:30:19.539Z,1.67
2022-11-02T04:33:08.871Z,1.80
2022-11-02T04:35:38.360Z,1.70
2022-11-02T04:38:23.736Z,1.73
2022-11-02T04:41:12.071Z,2.15
2022-11-02T04:43:39.860Z,1.67
2022-11-02T04:46:07.643Z,1.85
2022-11-02T04:48:36.714Z,2.08
2022-11-02T04:51:04.582Z,1.77
2022-11-02T04:53:32.327Z,1.75
2022-11-02T04:56:00.088Z,1.90
2022-11-02T04:58:28.030Z,1.92
2022-11-02T05:00:55.787Z,1.98
2022-11-02T05:03:23.796Z,1.77
2022-11-02T05:05:56.537Z,1.88
2022-11-02T05:08:24.353Z,1.45
2022-11-02T05:10:56.218Z,2.00
2022-11-02T05:13:24.549Z,1.67
2022-11-02T05:15:52.492Z,2.00
2022-11-02T05:20:54.259Z,1.88
2022-11-02T05:23:24.492Z,2.10
2022-11-02T05:25:56.714Z,1.85
2022-11-02T05:28:25.828Z,1.80
2022-11-02T05:30:54.584Z,1.95
2022-11-02T05:33:26.613Z,1.88
2022-11-02T05:35:57.912Z,1.70
2022-11-02T05:38:28.658Z,1.75
2022-11-02T05:40:58.644Z,1.73
2022-11-02T05:43:27.234Z,1.70
2022-11-02T05:45:56.750Z,1.92
2022-11-02T05:48:26.019Z,1.80
2022-11-02T05:50:57.513Z,1.70
2022-11-02T05:53:28.003Z,1.90
2022-11-02T05:55:59.256Z,1.80
2022-11-02T05:58:27.523Z,1.60
2022-11-02T06:00:55.673Z,2.00
2022-11-02T06:03:23.441Z,1.80
2022-11-02T06:05:57.817Z,1.85
2022-11-02T06:08:27.097Z,1.38
2022-11-02T06:10:55.327Z,1.80
2022-11-02T06:13:23.139Z,1.80
2022-11-02T06:15:50.926Z,1.63
2022-11-02T06:18:18.716Z,2.00
2022-11-02T06:20:46.474Z,1.90
2022-11-02T06:23:17.916Z,1.50
2022-11-02T06:25:52.231Z,2.20
2022-11-02T06:28:20.824Z,1.80
2022-11-02T06:30:50.075Z,1.35
2022-11-02T06:33:18.458Z,1.90
2022-11-02T06:35:47.963Z,1.70
2022-11-02T06:38:16.456Z,1.60
2022-11-02T06:40:44.678Z,1.80
2022-11-02T06:43:17.803Z,1.88
2022-11-02T06:45:46.646Z,1.80
2022-11-02T06:48:14.654Z,1.52
2022-11-02T06:50:42.558Z,1.58
2022-11-02T06:53:10.337Z,1.52
2022-11-02T06:55:38.161Z,1.90
2022-11-02T06:58:06.103Z,1.60
2022-11-02T07:00:35.359Z,1.90
2022-11-02T07:03:06.413Z,1.88
2022-11-02T07:05:35.337Z,1.60
2022-11-02T07:08:04.019Z,1.98
2022-11-02T07:10:32.469Z,1.50
2022-11-02T07:13:00.216Z,1.63
2022-11-02T07:15:28.745Z,1.60
2022-11-02T07:17:57.852Z,1.50
2022-11-02T07:20:25.662Z,1.50
2022-11-02T07:22:55.688Z,1.30
2022-11-02T07:25:23.934Z,1.60
2022-11-02T07:27:51.950Z,1.63
2022-11-02T07:30:20.154Z,1.27
2022-11-02T07:32:48.156Z,1.52
2022-11-02T07:35:18.414Z,1.58
2022-11-02T07:37:56.209Z,1.55
2022-11-02T07:40:24.069Z,1.60
2022-11-02T07:42:53.849Z,1.10
2022-11-02T07:45:22.307Z,1.50
2022-11-02T07:47:51.191Z,1.90
2022-11-02T07:50:23.548Z,1.65
2022-11-02T07:52:53.051Z,1.35
2022-11-02T07:55:23.700Z,1.48
2022-11-02T07:57:55.547Z,1.45
2022-11-02T08:00:23.668Z,1.42
2022-11-02T08:02:55.690Z,1.85
2022-11-02T08:05:25.916Z,1.45
2022-11-02T08:07:59.017Z,1.35
2022-11-02T08:10:28.381Z,1.13
2022-11-02T08:12:56.921Z,1.50
2022-11-02T08:15:25.282Z,1.50
2022-11-02T08:18:03.078Z,1.70
2022-11-02T08:20:34.717Z,1.50
2022-11-02T08:23:02.801Z,1.25
2022-11-02T08:25:31.711Z,1.30
2022-11-02T08:28:01.390Z,1.30
2022-11-02T08:30:31.595Z,1.35
2022-11-02T08:33:05.442Z,1.23
2022-11-02T08:35:37.559Z,1.40
2022-11-02T08:38:06.421Z,1.48
2022-11-02T08:40:35.875Z,1.50
2022-11-02T08:43:06.127Z,1.70
2022-11-02T08:46:08.562Z,1.20
2022-11-02T08:48:23.800Z,1.38
2022-11-02T08:50:53.113Z,1.40
2022-11-02T08:53:20.877Z,1.23
2022-11-02T08:55:48.840Z,1.35
2022-11-02T08:58:16.722Z,1.20
2022-11-02T09:00:44.933Z,1.20
2022-11-02T09:03:14.854Z,1.35
2022-11-02T09:05:45.245Z,1.45
2022-11-02T09:08:17.705Z,1.00
2022-11-02T09:10:50.222Z,1.33
2022-11-02T09:13:24.621Z,1.30
2022-11-02T09:15:55.142Z,1.30
2022-11-02T09:18:23.534Z,1.23
2022-11-02T09:20:51.832Z,1.13
2022-11-02T09:23:22.584Z,0.88
2022-11-02T09:25:51.075Z,1.30
2022-11-02T09:28:19.127Z,1.20
2022-11-02T09:30:47.072Z,1.17
2022-11-02T09:33:15.005Z,1.13
2022-11-02T09:35:46.999Z,1.13
2022-11-02T09:38:16.061Z,1.10
2022-11-02T09:40:52.910Z,0.90
2022-11-02T09:43:34.940Z,0.68
2022-11-02T09:46:07.734Z,1.42
2022-11-02T09:48:42.876Z,1.45
2022-11-02T09:51:14.507Z,0.88
2022-11-02T09:53:54.229Z,1.20
2022-11-02T09:56:23.844Z,1.00
2022-11-02T09:59:01.278Z,1.10
2022-11-02T10:01:55.478Z,0.75
2022-11-02T10:04:59.817Z,1.17
2022-11-02T10:07:46.013Z,0.95
2022-11-02T10:10:18.955Z,0.80
2022-11-02T10:13:01.767Z,0.80
2022-11-02T10:15:40.461Z,0.82
2022-11-02T10:18:15.913Z,0.77
2022-11-02T10:20:47.771Z,0.80
2022-11-02T10:23:25.045Z,1.08
2022-11-02T10:25:53.286Z,0.70
2022-11-02T10:28:29.495Z,1.00
2022-11-02T10:30:57.439Z,0.80
2022-11-02T10:33:28.442Z,0.80
2022-11-02T10:36:25.641Z,0.63
2022-11-02T10:39:12.738Z,0.82
2022-11-02T10:42:11.980Z,0.95
2022-11-02T10:45:08.324Z,0.80
2022-11-02T10:47:44.676Z,1.00
2022-11-02T10:50:38.710Z,0.85
2022-11-02T10:53:39.368Z,0.70
2022-11-02T10:56:11.824Z,1.02
2022-11-02T10:58:46.847Z,0.80
2022-11-02T11:01:16.156Z,0.95
2022-11-02T11:03:56.969Z,0.95
2022-11-02T11:06:28.175Z,0.88
2022-11-02T11:09:02.720Z,0.82
2022-11-02T11:11:34.901Z,0.80
2022-11-02T11:19:53.670Z,0.52
2022-11-02T11:22:30.462Z,1.90
2022-11-02T11:25:27.451Z,0.70
2022-11-02T11:27:58.139Z,1.10
2022-11-02T11:33:23.073Z,0.93
2022-11-02T11:35:52.630Z,1.45
2022-11-02T11:38:24.354Z,0.70
2022-11-02T11:40:56.896Z,0.63
2022-11-02T11:43:30.474Z,1.20
2022-11-02T11:46:05.997Z,0.73
2022-11-02T11:48:41.722Z,0.85
2022-11-02T11:51:31.052Z,0.73
2022-11-02T11:54:18.685Z,0.70
2022-11-02T11:56:46.881Z,1.00
2022-11-02T11:59:24.873Z,0.80
2022-11-02T12:01:58.268Z,0.70
2022-11-02T12:04:36.087Z,0.93
2022-11-02T12:07:25.208Z,1.05
2022-11-02T12:10:06.121Z,1.23
2022-11-02T12:15:36.223Z,0.60
2022-11-02T12:18:27.155Z,0.45
2022-11-02T12:21:11.879Z,0.90
2022-11-02T12:24:00.356Z,0.60
2022-11-02T12:26:44.480Z,1.08
2022-11-02T12:29:58.599Z,0.80
2022-11-02T12:32:49.887Z,0.73
2022-11-02T12:35:35.154Z,1.00
2022-11-02T12:38:28.010Z,0.82
2022-11-02T12:41:04.882Z,0.80
2022-11-02T12:43:44.899Z,0.80
2022-11-02T12:46:38.505Z,0.70
2022-11-02T12:49:35.594Z,0.80
2022-11-02T12:52:19.095Z,0.75
2022-11-02T12:54:52.862Z,0.70
2022-11-02T12:57:25.160Z,0.90
2022-11-02T12:59:58.849Z,0.60
2022-11-02T13:02:32.748Z,0.90
2022-11-02T13:05:06.838Z,0.60
2022-11-02T13:07:41.149Z,0.70
2022-11-02T13:10:20.398Z,0.60
2022-11-02T13:12:53.085Z,0.70
2022-11-02T13:15:25.242Z,0.77
2022-11-02T13:17:58.229Z,0.50
2022-11-02T13:20:35.610Z,0.93
2022-11-02T13:23:13.219Z,0.70
2022-11-02T13:25:51.692Z,0.77
2022-11-02T13:28:32.564Z,0.90
2022-11-02T13:31:01.627Z,0.73
2022-11-02T13:33:48.065Z,1.00
2022-11-02T13:36:16.533Z,0.82
2022-11-02T13:38:51.414Z,0.60
2022-11-02T13:42:15.334Z,0.77
2022-11-02T13:48:39.863Z,0.50
2022-11-02T13:51:24.820Z,0.57
2022-11-02T13:54:01.180Z,0.50
2022-11-02T13:56:36.249Z,0.70
2022-11-02T13:59:09.143Z,0.60
2022-11-02T14:01:42.506Z,0.70
2022-11-02T14:04:13.584Z,0.70
2022-11-02T14:06:52.183Z,0.60
2022-11-02T14:09:35.997Z,0.50
2022-11-02T14:12:43.335Z,0.57
2022-11-02T14:15:56.813Z,0.85
2022-11-02T14:18:31.304Z,0.73
2022-11-02T14:21:00.491Z,0.47
2022-11-02T14:23:38.377Z,0.88
2022-11-02T14:26:26.341Z,0.70
2022-11-02T14:28:54.254Z,0.50
2022-11-02T14:31:51.667Z,0.77
2022-11-02T14:34:49.605Z,0.70
2022-11-02T14:37:41.526Z,1.33
2022-11-02T14:40:27.902Z,0.65
2022-11-02T14:43:50.221Z,0.60
2022-11-02T14:46:47.363Z,0.52
2022-11-02T14:49:22.918Z,1.20
2022-11-02T14:52:04.789Z,0.70
2022-11-02T14:54:39.458Z,0.77
2022-11-02T14:57:24.106Z,1.10
2022-11-02T14:59:55.511Z,0.70
2022-11-02T15:02:31.661Z,1.08
2022-11-02T15:05:03.486Z,0.60
2022-11-02T15:07:37.841Z,0.75
2022-11-02T15:10:29.085Z,0.70
2022-11-02T15:13:34.498Z,0.73
2022-11-02T15:16:26.495Z,1.00
2022-11-02T15:18:55.885Z,0.60
2022-11-02T15:21:29.127Z,0.70
2022-11-02T15:24:11.058Z,1.10
2022-11-02T15:26:49.905Z,0.80
2022-11-02T15:29:36.880Z,0.80
2022-11-02T15:32:10.254Z,0.70
2022-11-02T15:34:45.119Z,0.80
2022-11-02T15:37:18.953Z,0.70
2022-11-02T15:39:51.262Z,0.68
2022-11-02T15:42:33.631Z,0.63
2022-11-02T15:45:47.469Z,0.63
2022-11-02T15:48:30.923Z,0.80
2022-11-02T15:51:12.288Z,0.80
2022-11-02T15:54:16.001Z,0.70
2022-11-02T15:56:55.512Z,0.80
2022-11-02T16:00:04.976Z,0.70
2022-11-02T16:02:38.951Z,0.57
2022-11-02T16:05:08.087Z,1.67
2022-11-02T16:07:50.188Z,0.88
2022-11-02T16:10:29.634Z,0.68
2022-11-02T16:13:02.240Z,0.80
2022-11-02T16:15:30.673Z,0.65
2022-11-02T16:17:59.986Z,1.23
2022-11-02T16:20:30.813Z,0.80
2022-11-02T16:23:02.222Z,0.73
2022-11-02T16:25:41.061Z,0.60
2022-11-02T16:28:23.025Z,0.93
2022-11-02T16:31:15.749Z,0.82
2022-11-02T16:33:51.453Z,0.80
2022-11-02T16:36:21.898Z,0.90
2022-11-02T16:38:58.901Z,0.77
2022-11-02T16:41:29.692Z,0.80
2022-11-02T16:43:59.921Z,0.50
2022-11-02T16:46:32.956Z,1.20
2022-11-02T16:49:16.320Z,0.63
2022-11-02T16:51:51.382Z,0.80
2022-11-02T16:54:40.929Z,0.57
2022-11-02T16:57:19.400Z,0.60
2022-11-02T16:59:52.787Z,0.77
2022-11-02T17:02:34.312Z,0.70
2022-11-02T17:05:06.767Z,0.95
2022-11-02T17:07:41.835Z,0.75
2022-11-02T17:10:20.153Z,0.47
2022-11-02T17:12:50.135Z,0.65
2022-11-02T17:15:21.782Z,0.70
2022-11-02T17:17:50.241Z,0.90
2022-11-02T17:20:28.808Z,0.60
2022-11-02T17:22:59.750Z,0.70
2022-11-02T17:27:59.058Z,0.60
2022-11-02T17:30:44.798Z,0.60
2022-11-02T17:33:29.824Z,0.70
2022-11-02T17:36:07.006Z,0.70
2022-11-02T17:38:35.770Z,0.50
2022-11-02T17:41:23.855Z,0.60
2022-11-02T17:43:50.837Z,0.50
2022-11-02T17:46:18.626Z,0.63
2022-11-02T17:48:46.635Z,0.73
2022-11-02T17:51:16.185Z,0.52
2022-11-02T17:53:43.942Z,0.73
2022-11-02T17:56:12.289Z,0.55
2022-11-02T17:58:40.539Z,0.63
2022-11-02T18:01:11.446Z,0.63
2022-11-02T18:06:08.777Z,0.70
2022-11-02T18:08:51.811Z,0.68
2022-11-02T18:11:24.897Z,0.60
2022-11-02T18:13:53.981Z,0.80
2022-11-02T18:16:21.778Z,1.13
2022-11-02T18:18:49.607Z,0.75
2022-11-02T18:21:17.398Z,0.98
2022-11-02T18:23:50.072Z,0.60
2022-11-02T18:26:17.876Z,0.60
2022-11-02T18:28:45.685Z,0.75
2022-11-02T18:31:13.455Z,0.85
2022-11-02T18:33:43.662Z,0.65
2022-11-02T18:36:16.710Z,0.98
2022-11-02T18:38:57.025Z,0.50
2022-11-02T18:41:31.835Z,0.77
2022-11-02T18:44:05.739Z,0.80
2022-11-02T18:46:44.797Z,0.75
2022-11-02T18:49:12.901Z,1.05
2022-11-02T18:51:42.946Z,0.60
2022-11-02T18:54:13.081Z,0.60
2022-11-02T18:56:40.897Z,0.50
2022-11-02T18:59:08.728Z,0.60
2022-11-02T19:01:36.872Z,0.60
2022-11-02T19:04:05.220Z,0.70
2022-11-02T19:06:52.228Z,0.70
2022-11-02T19:09:33.692Z,0.60
2022-11-02T19:12:06.462Z,0.77
2022-11-02T19:14:36.936Z,0.75
2022-11-02T19:17:06.008Z,1.00
2022-11-02T19:19:35.114Z,0.88
2022-11-02T19:22:03.525Z,1.05
2022-11-02T19:24:32.702Z,0.68
2022-11-02T19:27:00.563Z,0.65
2022-11-02T19:29:28.347Z,0.80
2022-11-02T19:31:56.115Z,0.60
2022-11-02T19:34:23.943Z,1.42
2022-11-02T19:36:51.745Z,1.08
2022-11-02T19:39:19.515Z,0.80
2022-11-02T19:41:52.272Z,0.82
2022-11-02T19:44:20.085Z,1.05
2022-11-02T19:46:48.360Z,0.85
2022-11-02T19:49:17.026Z,0.80
2022-11-02T19:51:45.185Z,0.90
2022-11-02T19:54:13.057Z,0.80
2022-11-02T19:56:40.881Z,0.98
2022-11-02T19:59:10.238Z,1.05
2022-11-02T20:01:42.020Z,1.63
2022-11-02T20:04:13.490Z,1.00
2022-11-02T20:06:44.358Z,1.08
2022-11-02T20:09:19.265Z,1.50
2022-11-02T20:11:51.677Z,1.00
2022-11-02T20:14:24.685Z,1.63
2022-11-02T20:17:10.733Z,1.10
2022-11-02T20:19:45.935Z,1.02
2022-11-02T20:22:15.084Z,0.77
2022-11-02T20:24:43.386Z,1.15
2022-11-02T20:27:12.843Z,1.20
2022-11-02T20:29:42.959Z,1.25
2022-11-02T20:32:12.447Z,1.07
2022-11-02T20:34:40.792Z,1.27
2022-11-02T20:37:08.580Z,1.05
2022-11-02T20:39:36.486Z,1.00
2022-11-02T20:42:04.498Z,0.90
2022-11-02T20:44:32.336Z,1.15
2022-11-02T20:47:01.451Z,0.95
2022-11-02T20:49:49.389Z,1.20
2022-11-02T20:52:18.473Z,1.10
2022-11-02T20:54:46.226Z,1.30
2022-11-02T20:57:14.041Z,1.00
2022-11-02T20:59:41.898Z,1.15
2022-11-02T21:02:13.304Z,1.00
2022-11-02T21:04:41.354Z,1.15
2022-11-02T21:07:09.287Z,1.10
2022-11-02T21:09:37.082Z,1.10
2022-11-02T21:12:23.140Z,1.25
2022-11-02T21:14:50.877Z,1.20
2022-11-02T21:17:19.975Z,0.85
2022-11-02T21:19:47.727Z,1.40
2022-11-02T21:22:15.483Z,0.90
2022-11-02T21:24:43.448Z,1.10
2022-11-02T21:27:11.209Z,0.90
2022-11-02T21:29:38.994Z,1.02
2022-11-02T21:32:07.570Z,1.15
2022-11-02T21:34:36.718Z,1.33
2022-11-02T21:37:07.039Z,1.15
2022-11-02T21:39:35.774Z,0.90
2022-11-02T21:42:04.815Z,1.33
2022-11-02T21:44:32.697Z,1.25
2022-11-02T21:47:00.566Z,1.10
2022-11-02T21:49:28.606Z,0.98
2022-11-02T21:51:57.707Z,0.93
2022-11-02T21:54:25.923Z,1.20
2022-11-02T21:56:53.763Z,1.10
2022-11-02T21:59:21.690Z,1.40
2022-11-02T22:01:49.423Z,1.08
2022-11-02T22:04:21.632Z,1.08
2022-11-02T22:06:50.619Z,1.23
2022-11-02T22:09:19.793Z,1.10
2022-11-02T22:11:47.643Z,1.80
2022-11-02T22:14:14.646Z,1.23
2022-11-02T22:16:45.662Z,1.13
2022-11-02T22:19:15.359Z,1.38
2022-11-02T22:21:52.269Z,1.20
2022-11-02T22:24:21.942Z,1.27
2022-11-02T22:26:51.573Z,1.00
2022-11-02T22:29:19.744Z,1.45
2022-11-02T22:31:47.658Z,1.15
2022-11-02T22:34:16.653Z,0.90
2022-11-02T22:36:46.500Z,1.83
2022-11-02T22:39:14.430Z,1.05
2022-11-02T22:41:45.637Z,1.02
2022-11-02T22:44:26.223Z,1.80
2022-11-02T22:49:22.347Z,1.08
2022-11-02T22:51:51.754Z,1.73
2022-11-02T22:54:20.971Z,1.33
2022-11-02T22:56:50.365Z,1.30
2022-11-02T22:59:18.340Z,1.20
2022-11-02T23:01:46.376Z,1.50
2022-11-02T23:04:14.413Z,0.90
2022-11-02T23:06:42.297Z,1.38
2022-11-02T23:09:12.089Z,1.45
2022-11-02T23:11:39.063Z,1.33
2022-11-02T23:14:10.792Z,1.38
2022-11-02T23:16:42.184Z,1.55
2022-11-02T23:19:29.592Z,1.08
2022-11-02T23:22:18.303Z,1.55
2022-11-02T23:25:05.989Z,1.35
2022-11-02T23:27:55.934Z,1.33
2022-11-02T23:30:45.186Z,1.00
2022-11-02T23:33:13.460Z,1.40
2022-11-02T23:35:57.788Z,1.20
2022-11-02T23:38:45.635Z,1.73
2022-11-02T23:41:13.532Z,1.10
2022-11-02T23:43:41.498Z,1.17
2022-11-02T23:46:10.636Z,1.20
2022-11-02T23:48:38.443Z,1.73
2022-11-02T23:51:38.743Z,2.00
2022-11-02T23:54:24.134Z,1.27
2022-11-02T23:56:51.858Z,1.17
2022-11-02T23:59:20.067Z,1.10
